Time;durP1;ratioP1;P1;durP2;ratioP2;P2;SDS_P1;SDS_P2;PMS_P1;PMS_P2;Temp;Humidity;BMP_temperature;BMP_pressure;BME280_temperature;BME280_humidity;BME280_pressure;Samples;Min_cycle;Max_cycle;Signal;HPM_P1;HPM_P2
2022/09/23 00:00:09;;;;;;;0.10;0.10;;;;;;;14.05;59.31;101862.09;5017427;28;20102;-77
2022/09/23 00:02:35;;;;;;;0.10;0.10;;;;;;;14.02;59.37;101854.19;5020146;28;20033;-77
2022/09/23 00:05:02;;;;;;;0.10;0.10;;;;;;;14.02;59.30;101863.97;5021939;28;20044;-77
2022/09/23 00:07:28;;;;;;;0.10;0.10;;;;;;;14.01;59.29;101856.88;5019241;28;20083;-77
2022/09/23 00:09:54;;;;;;;0.10;0.10;;;;;;;13.98;59.40;101864.91;5013245;28;20132;-77
2022/09/23 00:12:21;;;;;;;0.85;0.85;;;;;;;13.96;59.25;101864.09;5009818;28;20075;-77
2022/09/23 00:14:47;;;;;;;0.63;0.63;;;;;;;13.94;59.75;101855.22;5022594;28;20094;-77
2022/09/23 00:17:13;;;;;;;0.10;0.10;;;;;;;13.90;59.75;101855.25;5016750;28;20029;-77
2022/09/23 00:19:39;;;;;;;0.63;0.63;;;;;;;13.86;59.71;101848.25;5046022;28;20017;-78
2022/09/23 00:22:06;;;;;;;0.00;0.00;;;;;;;13.83;59.52;101848.31;5012336;28;20057;-78
2022/09/23 00:24:32;;;;;;;2.70;0.60;;;;;;;13.81;59.88;101849.25;5016515;28;20048;-78
2022/09/23 00:26:59;;;;;;;0.10;0.10;;;;;;;13.79;59.74;101851.91;5024541;28;20030;-78
2022/09/23 00:29:25;;;;;;;0.00;0.00;;;;;;;13.78;60.09;101847.50;5015467;28;20117;-78
2022/09/23 00:31:51;;;;;;;0.10;0.10;;;;;;;13.76;59.69;101846.66;5026580;28;20548;-77
2022/09/23 00:34:18;;;;;;;0.10;0.10;;;;;;;13.69;59.91;101845.00;5021363;28;20034;-77
2022/09/23 00:36:44;;;;;;;0.20;0.20;;;;;;;13.65;60.09;101836.19;5029898;28;20031;-78
2022/09/23 00:39:10;;;;;;;0.10;0.10;;;;;;;13.63;60.25;101842.44;5017745;28;20025;-77
2022/09/23 00:41:36;;;;;;;0.10;0.10;;;;;;;13.63;60.70;101847.75;5021336;28;20033;-77
2022/09/23 00:44:39;;;;;;;0.10;0.10;;;;;;;13.69;60.12;101845.00;5025047;28;21754;-78
2022/09/23 00:47:13;;;;;;;0.10;0.10;;;;;;;13.63;60.03;101845.97;5016391;28;20030;-77
2022/09/23 00:49:40;;;;;;;0.10;0.10;;;;;;;13.58;59.95;101843.41;5010939;28;20045;-78
2022/09/23 00:52:12;;;;;;;0.10;0.10;;;;;;;13.57;59.93;101841.63;5017716;28;20018;-78
2022/09/23 00:54:38;;;;;;;0.10;0.10;;;;;;;13.54;60.20;101836.34;5026350;28;20502;-77
2022/09/23 00:57:05;;;;;;;0.00;0.00;;;;;;;13.50;60.16;101832.00;5022733;28;20544;-78
2022/09/23 00:59:32;;;;;;;0.10;0.10;;;;;;;13.49;60.28;101842.66;5016679;28;20022;-78
2022/09/23 01:02:00;;;;;;;0.08;0.08;;;;;;;13.48;60.69;101833.78;5012195;28;20030;-78
2022/09/23 01:04:28;;;;;;;0.35;0.35;;;;;;;13.47;60.18;101832.06;5015597;28;20512;-78
2022/09/23 01:06:54;;;;;;;0.10;0.10;;;;;;;13.46;59.93;101832.94;5027153;28;20025;-77
2022/09/23 01:09:23;;;;;;;0.10;0.10;;;;;;;13.46;60.02;101821.41;5023436;28;20128;-77
2022/09/23 01:12:09;;;;;;;0.32;0.32;;;;;;;13.51;60.56;101828.44;5016744;28;20120;-78
2022/09/23 01:20:14;;;;;;;0.03;0.03;;;;;;;13.53;60.56;101823.06;5108902;27;20327;-77
2022/09/23 01:26:09;;;;;;;0.20;0.20;;;;;;;13.57;60.07;101820.34;5112051;27;20408;-77
2022/09/23 01:31:38;;;;;;;0.08;0.08;;;;;;;13.54;60.30;101819.50;5066107;28;20734;-77
2022/09/23 01:34:23;;;;;;;0.10;0.10;;;;;;;13.55;60.11;101815.94;5043863;28;20386;-77
2022/09/23 01:37:12;;;;;;;0.10;0.10;;;;;;;13.59;60.16;101823.88;5044757;28;20036;-77
2022/09/23 01:42:38;;;;;;;0.10;0.10;;;;;;;13.52;60.25;101816.88;5109823;27;20752;-77
2022/09/23 01:45:16;;;;;;;0.08;0.08;;;;;;;13.51;60.56;101811.59;5104997;28;20028;-77
2022/09/23 01:47:53;;;;;;;0.15;0.15;;;;;;;13.48;60.29;101815.16;5086212;28;20055;-77
2022/09/23 01:50:58;;;;;;;0.57;0.57;;;;;;;13.44;60.32;101808.13;5101415;28;20039;-77
2022/09/23 01:53:38;;;;;;;0.57;0.57;;;;;;;13.43;60.36;101811.69;5109631;28;20376;-77
2022/09/23 01:56:15;;;;;;;0.00;0.00;;;;;;;13.41;60.30;101801.06;5098340;28;20028;-77
2022/09/23 01:58:49;;;;;;;0.13;0.13;;;;;;;13.37;60.62;101795.78;5102981;28;20487;-77
2022/09/23 02:01:24;;;;;;;0.10;0.10;;;;;;;13.33;60.43;101796.75;5092351;28;20035;-77
2022/09/23 02:04:03;;;;;;;0.10;0.10;;;;;;;13.32;60.86;101792.31;5088889;28;20062;-77
2022/09/23 02:06:37;;;;;;;0.47;0.15;;;;;;;13.28;60.76;101791.50;5092847;28;20028;-77
2022/09/23 02:09:13;;;;;;;0.10;0.10;;;;;;;13.25;60.92;101792.41;5108981;28;20024;-77
2022/09/23 02:11:44;;;;;;;0.10;0.10;;;;;;;13.21;60.91;101788.06;5109149;28;20119;-77
2022/09/23 02:14:25;;;;;;;0.10;0.10;;;;;;;13.21;60.42;101790.72;5109286;28;20069;-77
2022/09/23 02:16:54;;;;;;;0.10;0.10;;;;;;;13.12;61.52;101785.53;5085632;28;20437;-77
2022/09/23 02:19:28;;;;;;;0.10;0.10;;;;;;;13.14;60.94;101778.41;5094693;28;20426;-77
2022/09/23 02:22:17;;;;;;;0.00;0.00;;;;;;;13.17;60.71;101777.47;5095550;28;20021;-77
2022/09/23 02:24:44;;;;;;;0.10;0.10;;;;;;;13.06;60.65;101778.53;5108615;28;20047;-77
2022/09/23 02:29:59;;;;;;;0.10;0.10;;;;;;;13.12;60.93;101769.56;5073828;27;20777;-79
2022/09/23 02:32:33;;;;;;;0.10;0.10;;;;;;;13.06;61.03;101774.97;5061152;28;20039;-79
2022/09/23 02:37:56;;;;;;;0.10;0.10;;;;;;;13.09;60.51;101764.31;5072133;28;20141;-78
2022/09/23 02:43:10;;;;;;;0.08;0.08;;;;;;;13.10;60.98;101766.06;5094697;28;20331;-77
2022/09/23 02:45:37;;;;;;;0.20;0.20;;;;;;;13.06;60.90;101762.56;5089704;28;20028;-77
2022/09/23 02:48:12;;;;;;;0.20;0.20;;;;;;;13.09;60.38;101753.66;5087452;28;20411;-78
2022/09/23 02:50:38;;;;;;;0.10;0.10;;;;;;;13.08;60.34;101751.91;5092270;28;20454;-77
2022/09/23 02:53:06;;;;;;;0.52;0.52;;;;;;;13.10;60.78;101750.09;5106365;28;20032;-77
2022/09/23 02:55:32;;;;;;;0.10;0.10;;;;;;;13.10;60.54;101753.63;5102255;28;20039;-77
2022/09/23 02:58:01;;;;;;;0.00;0.00;;;;;;;13.13;60.34;101752.69;5094620;28;20042;-77
2022/09/23 03:00:39;;;;;;;0.10;0.10;;;;;;;13.19;60.46;101746.41;5091249;28;20046;-77
2022/09/23 03:03:45;;;;;;;0.10;0.10;;;;;;;13.27;60.73;101737.41;5085474;28;20040;-78
2022/09/23 03:06:28;;;;;;;0.20;0.20;;;;;;;13.23;61.00;101741.03;5098652;28;20558;-77
2022/09/23 03:09:07;;;;;;;0.00;0.00;;;;;;;13.24;61.20;101736.56;5100163;28;20507;-77
2022/09/23 03:11:37;;;;;;;0.10;0.10;;;;;;;13.21;60.82;101737.50;5081659;28;20102;-77
2022/09/23 03:16:52;;;;;;;0.15;0.15;;;;;;;13.26;61.12;101724.13;5072176;28;20137;-77
2022/09/23 03:19:42;;;;;;;0.10;0.10;;;;;;;13.38;60.46;101723.03;5075395;28;20036;-78
2022/09/23 03:22:14;;;;;;;0.52;0.52;;;;;;;13.34;61.20;101729.31;5073206;28;20047;-78
2022/09/23 03:24:43;;;;;;;0.10;0.10;;;;;;;13.38;61.14;101725.72;5073830;28;20023;-77
2022/09/23 03:27:16;;;;;;;0.10;0.10;;;;;;;13.41;60.89;101725.66;5084021;28;20089;-77
2022/09/23 03:29:47;;;;;;;0.10;0.10;;;;;;;13.43;60.89;101729.16;5069296;28;20024;-77
2022/09/23 03:32:18;;;;;;;0.00;0.00;;;;;;;13.45;61.41;101727.38;5065927;28;20052;-77
2022/09/23 03:34:48;;;;;;;0.22;0.20;;;;;;;13.47;61.38;101717.56;5065229;28;20475;-77
2022/09/23 03:37:31;;;;;;;0.10;0.10;;;;;;;13.52;61.17;101721.03;5071976;28;20033;-77
2022/09/23 03:40:08;;;;;;;0.03;0.03;;;;;;;13.57;60.67;101720.91;5082367;28;20043;-77
2022/09/23 03:42:36;;;;;;;0.10;0.10;;;;;;;13.57;60.75;101729.81;5076085;28;20806;-77
2022/09/23 03:45:08;;;;;;;0.43;0.43;;;;;;;13.62;60.66;101731.50;5066612;28;20039;-77
2022/09/23 03:47:35;;;;;;;0.10;0.10;;;;;;;13.63;60.80;101722.59;5062511;28;20108;-78
2022/09/23 03:50:01;;;;;;;0.10;0.10;;;;;;;13.64;60.39;101724.38;5064520;28;20074;-77
2022/09/23 03:52:27;;;;;;;0.10;0.10;;;;;;;13.65;60.85;101718.13;5083294;28;20044;-77
2022/09/23 03:54:53;;;;;;;0.10;0.10;;;;;;;13.65;60.50;101713.69;5082576;28;20103;-77
2022/09/23 03:57:22;;;;;;;0.10;0.10;;;;;;;13.64;61.08;101709.25;5077702;28;20033;-77
2022/09/23 03:59:49;;;;;;;0.10;0.10;;;;;;;13.64;60.60;101705.72;5059723;28;20025;-77
2022/09/23 04:02:17;;;;;;;0.00;0.00;;;;;;;13.65;60.45;101704.81;5065065;28;20040;-77
2022/09/23 04:04:43;;;;;;;0.10;0.10;;;;;;;13.64;60.84;101703.94;5070898;28;20454;-77
2022/09/23 04:07:10;;;;;;;0.00;0.00;;;;;;;13.67;60.57;101692.34;5082189;28;20021;-78
2022/09/23 04:09:36;;;;;;;0.10;0.10;;;;;;;13.72;60.79;101698.44;5073200;28;20293;-77
2022/09/23 04:12:04;;;;;;;0.10;0.10;;;;;;;13.74;60.90;101692.22;5068949;28;20028;-77
2022/09/23 04:14:30;;;;;;;0.10;0.10;;;;;;;13.76;60.39;101678.84;5067639;28;20044;-77
2022/09/23 04:16:56;;;;;;;1.17;0.57;;;;;;;13.78;60.69;101684.16;5068160;28;20031;-77
2022/09/23 04:19:23;;;;;;;0.10;0.10;;;;;;;13.78;60.45;101679.69;5074716;28;20073;-78
2022/09/23 04:21:49;;;;;;;0.10;0.10;;;;;;;13.80;60.65;101688.53;5063772;28;20033;-77
2022/09/23 04:24:16;;;;;;;0.10;0.10;;;;;;;13.80;60.74;101677.00;5065982;28;20047;-78
2022/09/23 04:26:42;;;;;;;0.10;0.10;;;;;;;13.82;60.57;101681.41;5076601;28;20024;-77
2022/09/23 04:29:10;;;;;;;0.47;0.47;;;;;;;13.85;60.35;101678.66;5045394;28;20029;-78
2022/09/23 04:31:36;;;;;;;0.10;0.10;;;;;;;13.83;60.67;101680.50;5051073;28;20518;-77
2022/09/23 04:34:03;;;;;;;0.20;0.20;;;;;;;13.83;60.68;101677.84;5037269;28;20044;-77
2022/09/23 04:36:29;;;;;;;0.10;0.10;;;;;;;13.85;60.64;101678.66;5038180;28;20481;-77
2022/09/23 04:38:55;;;;;;;0.10;0.10;;;;;;;13.89;60.62;101680.38;5037482;28;20465;-77
2022/09/23 04:41:22;;;;;;;0.10;0.10;;;;;;;13.93;60.49;101683.81;5037542;28;20040;-77
2022/09/23 04:43:48;;;;;;;0.10;0.10;;;;;;;13.94;60.68;101682.91;5039298;28;20041;-77
2022/09/23 04:46:15;;;;;;;0.10;0.10;;;;;;;13.95;60.67;101674.03;5035961;28;20493;-77
2022/09/23 04:48:41;;;;;;;0.57;0.57;;;;;;;13.96;60.73;101682.91;5037910;28;20027;-78
2022/09/23 04:51:11;;;;;;;0.10;0.10;;;;;;;13.97;60.94;101687.31;5035765;28;20072;-77
2022/09/23 04:53:40;;;;;;;5.10;1.95;;;;;;;13.97;60.88;101679.31;5036095;28;20029;-77
2022/09/23 04:56:09;;;;;;;0.15;0.15;;;;;;;13.98;60.93;101678.41;5038905;28;20057;-77
2022/09/23 04:58:35;;;;;;;0.10;0.10;;;;;;;13.99;60.83;101677.50;5040756;28;20069;-77
2022/09/23 05:01:23;;;;;;;0.20;0.20;;;;;;;14.10;60.70;101686.16;5035398;28;20112;-77
2022/09/23 05:03:51;;;;;;;0.20;0.20;;;;;;;14.10;60.63;101685.28;5040964;28;20061;-77
2022/09/23 05:06:17;;;;;;;0.05;0.05;;;;;;;14.14;60.70;101686.97;5035590;28;20025;-77
2022/09/23 05:08:50;;;;;;;1.00;0.70;;;;;;;14.15;60.75;101689.59;5037949;28;20036;-77
2022/09/23 05:11:17;;;;;;;0.10;0.10;;;;;;;14.14;60.71;101687.81;5036614;28;20025;-77
2022/09/23 05:13:45;;;;;;;0.10;0.10;;;;;;;14.14;60.58;101687.81;5038383;28;20083;-77
2022/09/23 05:16:12;;;;;;;0.10;0.10;;;;;;;14.17;60.52;101690.44;5038346;28;20112;-77
2022/09/23 05:18:40;;;;;;;0.20;0.20;;;;;;;14.21;60.77;101691.25;5038422;28;20444;-77
2022/09/23 05:21:06;;;;;;;0.20;0.20;;;;;;;14.22;60.55;101691.22;5041342;28;20112;-77
2022/09/23 05:23:32;;;;;;;0.10;0.10;;;;;;;14.26;60.57;101693.84;5035577;28;20034;-78
2022/09/23 05:26:01;;;;;;;0.10;0.10;;;;;;;14.29;60.50;101685.75;5035707;28;20033;-78
2022/09/23 05:28:31;;;;;;;0.10;0.10;;;;;;;14.31;60.61;101683.94;5040443;28;20048;-77
2022/09/23 05:33:38;;;;;;;0.10;0.10;;;;;;;14.34;60.39;101690.09;5060654;28;20734;-78
2022/09/23 05:36:05;;;;;;;0.10;0.10;;;;;;;14.35;60.50;101680.28;5063676;28;20499;-77
2022/09/23 05:38:32;;;;;;;0.10;0.10;;;;;;;14.37;60.47;101678.47;5068318;28;20024;-78
2022/09/23 05:40:59;;;;;;;0.10;0.10;;;;;;;14.39;60.53;101676.63;5052479;28;20057;-77
2022/09/23 05:43:27;;;;;;;0.08;0.08;;;;;;;14.42;60.52;101692.56;5054908;28;20439;-78
2022/09/23 05:46:03;;;;;;;0.00;0.00;;;;;;;14.49;60.55;101693.28;5051963;28;20033;-77
2022/09/23 05:48:31;;;;;;;0.10;0.10;;;;;;;14.45;60.70;101699.63;5057365;28;20030;-77
2022/09/23 05:50:58;;;;;;;0.10;0.10;;;;;;;14.45;60.66;101700.47;5057321;28;20052;-78
2022/09/23 05:53:25;;;;;;;0.10;0.10;;;;;;;14.47;60.77;101695.16;5058627;28;20024;-78
2022/09/23 05:55:53;;;;;;;0.00;0.00;;;;;;;14.48;60.62;101696.88;5051178;28;20048;-78
2022/09/23 05:58:20;;;;;;;0.10;0.10;;;;;;;14.43;60.72;101699.66;5055139;28;20032;-78
2022/09/23 06:00:48;;;;;;;0.10;0.10;;;;;;;14.46;60.69;101702.25;5054629;28;20095;-77
2022/09/23 06:03:15;;;;;;;0.10;0.10;;;;;;;14.52;60.76;101696.78;5057888;28;20036;-78
2022/09/23 06:05:42;;;;;;;0.00;0.00;;;;;;;14.54;60.49;101697.63;5054175;28;20044;-78
2022/09/23 06:08:09;;;;;;;0.10;0.10;;;;;;;14.56;60.38;101693.13;5053900;28;20033;-78
2022/09/23 06:10:37;;;;;;;0.10;0.10;;;;;;;14.61;60.26;101689.50;5050149;28;20549;-77
2022/09/23 06:13:03;;;;;;;0.13;0.13;;;;;;;14.64;60.28;101692.06;5051023;28;20067;-77
2022/09/23 06:15:29;;;;;;;0.10;0.10;;;;;;;14.66;60.27;101698.28;5051712;28;20045;-77
2022/09/23 06:17:55;;;;;;;0.10;0.10;;;;;;;14.72;60.10;101691.00;5050196;28;20029;-77
2022/09/23 06:20:21;;;;;;;0.10;0.10;;;;;;;14.75;60.20;101690.06;5046796;28;20095;-77
2022/09/23 06:22:47;;;;;;;0.30;0.30;;;;;;;14.81;59.98;101689.91;5047042;28;20959;-77
2022/09/23 06:25:13;;;;;;;0.00;0.00;;;;;;;14.84;59.86;101695.19;5046648;28;20029;-77
2022/09/23 06:27:39;;;;;;;0.10;0.10;;;;;;;14.87;59.97;101694.22;5051471;28;20416;-77
2022/09/23 06:30:06;;;;;;;0.10;0.10;;;;;;;14.93;59.78;101693.19;5050000;28;20037;-77
2022/09/23 06:32:32;;;;;;;0.10;0.10;;;;;;;14.95;59.91;101686.03;5046278;28;20036;-77
2022/09/23 06:34:58;;;;;;;0.10;0.10;;;;;;;14.98;59.32;101691.31;5046550;28;20064;-77
2022/09/23 06:37:25;;;;;;;0.25;0.25;;;;;;;15.04;59.22;101693.78;5052720;28;20052;-77
2022/09/23 06:39:53;;;;;;;0.10;0.10;;;;;;;15.08;59.13;101681.25;5047588;28;20041;-77
2022/09/23 06:42:19;;;;;;;0.10;0.10;;;;;;;15.14;59.06;101679.31;5049455;28;20495;-77
2022/09/23 06:44:45;;;;;;;0.10;0.10;;;;;;;15.18;59.12;101678.31;5037500;28;20029;-77
2022/09/23 06:47:11;;;;;;;0.10;0.10;;;;;;;15.26;59.16;101680.78;5040869;28;20040;-77
2022/09/23 06:49:37;;;;;;;0.30;0.30;;;;;;;15.32;59.29;101679.75;5036169;28;20032;-79
2022/09/23 06:52:04;;;;;;;0.00;0.00;;;;;;;15.39;59.10;101686.69;5041002;28;20432;-78
2022/09/23 06:54:30;;;;;;;0.10;0.10;;;;;;;15.46;59.16;101685.59;5036352;28;20034;-78
2022/09/23 06:56:56;;;;;;;0.10;0.10;;;;;;;15.52;59.23;101672.06;5037921;28;20029;-78
2022/09/23 06:59:23;;;;;;;0.10;0.10;;;;;;;15.57;59.22;101673.75;5037138;28;20086;-78
2022/09/23 07:01:49;;;;;;;0.10;0.10;;;;;;;15.63;58.98;101673.59;5033363;28;20047;-78
2022/09/23 07:04:15;;;;;;;0.10;0.10;;;;;;;15.70;58.92;101669.78;5036345;28;20042;-77
2022/09/23 07:06:41;;;;;;;0.10;0.10;;;;;;;15.76;59.31;101672.28;5037090;28;20025;-78
2022/09/23 07:09:09;;;;;;;0.55;0.55;;;;;;;15.85;58.89;101677.44;5032445;28;20038;-77
2022/09/23 07:11:36;;;;;;;0.73;0.73;;;;;;;15.91;58.93;101672.81;5037833;28;20021;-77
2022/09/23 07:14:02;;;;;;;0.20;0.20;;;;;;;15.96;58.59;101677.13;5032519;28;20030;-77
2022/09/23 07:16:29;;;;;;;0.10;0.10;;;;;;;16.01;58.79;101679.63;5033126;28;20031;-77
2022/09/23 07:18:55;;;;;;;0.10;0.10;;;;;;;16.12;58.87;101677.50;5032379;28;20475;-80
2022/09/23 07:21:21;;;;;;;0.10;0.10;;;;;;;16.26;58.44;101681.59;5034945;28;20057;-78
2022/09/23 07:23:49;;;;;;;0.32;0.32;;;;;;;16.31;58.67;101679.63;5034006;28;20026;-78
2022/09/23 07:26:16;;;;;;;0.10;0.10;;;;;;;16.38;58.05;101683.00;5034352;28;20029;-78
2022/09/23 07:28:42;;;;;;;0.10;0.10;;;;;;;16.46;58.13;101679.19;5038517;28;20032;-78
2022/09/23 07:31:11;;;;;;;0.00;0.00;;;;;;;16.55;57.36;101680.69;5036556;28;20029;-78
2022/09/23 07:33:39;;;;;;;0.10;0.10;;;;;;;16.60;57.59;101677.88;5037264;28;20029;-78
2022/09/23 07:36:07;;;;;;;0.10;0.10;;;;;;;16.73;57.69;101679.22;5034381;28;20264;-78
2022/09/23 07:38:35;;;;;;;0.10;0.10;;;;;;;16.84;57.55;101675.31;5037648;28;20040;-78
2022/09/23 07:41:03;;;;;;;0.10;0.10;;;;;;;16.90;56.98;101675.13;5041294;28;20036;-81
2022/09/23 07:43:31;;;;;;;0.22;0.22;;;;;;;16.95;57.03;101663.34;5043245;28;20449;-81
2022/09/23 07:45:59;;;;;;;0.00;0.00;;;;;;;16.98;56.22;101665.03;5035628;28;20028;-77
2022/09/23 07:48:25;;;;;;;0.05;0.05;;;;;;;17.04;56.81;101662.16;5032622;28;20030;-78
2022/09/23 07:50:51;;;;;;;0.10;0.10;;;;;;;17.12;57.18;101664.56;5032716;28;20044;-77
2022/09/23 07:53:17;;;;;;;0.10;0.10;;;;;;;17.21;56.69;101663.38;5034280;28;20507;-77
2022/09/23 07:55:52;;;;;;;0.32;0.32;;;;;;;17.32;56.88;101668.38;5035214;28;20072;-78
2022/09/23 07:58:19;;;;;;;0.10;0.10;;;;;;;17.39;56.92;101667.22;5036273;28;20051;-77
2022/09/23 08:00:45;;;;;;;0.05;0.05;;;;;;;17.45;56.41;101672.38;5033902;28;20497;-77
2022/09/23 08:03:11;;;;;;;0.10;0.10;;;;;;;17.50;55.82;101666.84;5033140;28;20532;-77
2022/09/23 08:05:37;;;;;;;0.20;0.20;;;;;;;17.52;55.75;101668.53;5033556;28;20033;-76
2022/09/23 08:08:06;;;;;;;0.22;0.22;;;;;;;17.58;55.90;101668.31;5035084;28;20580;-77
2022/09/23 08:10:32;;;;;;;0.93;0.93;;;;;;;17.59;55.28;101664.69;5032557;28;20103;-77
2022/09/23 08:13:02;;;;;;;0.20;0.20;;;;;;;17.65;55.78;101674.31;5036896;28;20093;-77
2022/09/23 08:15:30;;;;;;;0.57;0.57;;;;;;;17.72;56.00;101675.84;5036613;28;20073;-77
2022/09/23 08:17:58;;;;;;;0.10;0.10;;;;;;;17.77;55.38;101670.34;5032853;28;20028;-77
2022/09/23 08:20:56;;;;;;;0.28;0.28;;;;;;;17.81;55.43;101673.75;5033848;28;20018;-77
2022/09/23 08:23:13;;;;;;;0.10;0.10;;;;;;;17.83;54.59;101679.94;5035141;28;20042;-78
2022/09/23 08:25:40;;;;;;;0.10;0.10;;;;;;;17.92;54.75;101674.25;5034641;28;20029;-77
2022/09/23 08:28:07;;;;;;;0.00;0.00;;;;;;;17.96;54.08;101675.91;5040339;28;20052;-78
2022/09/23 08:30:33;;;;;;;0.40;0.40;;;;;;;18.07;54.42;101676.38;5039374;28;20044;-78
2022/09/23 08:32:59;;;;;;;0.17;0.17;;;;;;;18.16;54.34;101674.28;5036251;28;20025;-78
2022/09/23 08:35:25;;;;;;;5.47;1.98;;;;;;;18.27;54.09;101677.41;5035688;28;20068;-77
2022/09/23 08:37:51;;;;;;;0.40;0.40;;;;;;;18.35;53.52;101677.97;5034943;28;20515;-78
2022/09/23 08:40:18;;;;;;;0.08;0.08;;;;;;;18.46;53.64;101676.69;5033360;28;20029;-77
2022/09/23 08:42:44;;;;;;;0.10;0.10;;;;;;;18.55;54.02;101670.94;5037614;28;20388;-77
2022/09/23 08:45:21;;;;;;;0.38;0.38;;;;;;;18.67;52.81;101667.75;5036515;28;20377;-78
2022/09/23 08:50:37;;;;;;;0.20;0.20;;;;;;;18.75;52.74;101675.50;5100600;27;20122;-78
2022/09/23 08:53:11;;;;;;;1.10;0.68;;;;;;;18.78;51.74;101678.06;5071014;28;20031;-77
2022/09/23 08:55:42;;;;;;;0.10;0.10;;;;;;;18.84;52.66;101676.91;5076592;28;20024;-77
2022/09/23 09:01:18;;;;;;;0.05;0.05;;;;;;;18.98;50.91;101671.00;5099920;27;20392;-76
2022/09/23 09:04:08;;;;;;;0.00;0.00;;;;;;;19.07;51.99;101674.16;5102660;28;20028;-76
2022/09/23 09:09:26;;;;;;;0.10;0.10;;;;;;;19.23;51.40;101673.53;5065299;28;20887;-76
2022/09/23 09:12:08;;;;;;;1.08;1.05;;;;;;;19.30;51.97;101675.03;5047467;28;20059;-76
2022/09/23 09:17:23;;;;;;;0.10;0.10;;;;;;;19.49;51.05;101671.50;5046843;28;20369;-76
2022/09/23 09:22:41;;;;;;;0.10;0.10;;;;;;;19.72;50.84;101671.34;5089152;27;20340;-76
2022/09/23 09:25:44;;;;;;;0.10;0.10;;;;;;;19.84;50.41;101674.47;5085852;28;20063;-76
2022/09/23 09:28:29;;;;;;;0.08;0.08;;;;;;;19.83;49.35;101675.41;5087327;28;20460;-76
2022/09/23 09:31:00;;;;;;;0.40;0.40;;;;;;;19.94;49.93;101670.41;5084803;28;20035;-76
2022/09/23 09:33:42;;;;;;;0.10;0.10;;;;;;;20.05;49.89;101667.22;5086688;28;20052;-76
2022/09/23 09:38:52;;;;;;;1.37;1.27;;;;;;;20.14;49.90;101664.09;5090461;27;1166980;-76
2022/09/23 09:41:23;;;;;;;0.70;0.70;;;;;;;20.20;49.10;101665.63;5111199;28;20036;-75
2022/09/23 09:43:55;;;;;;;0.22;0.22;;;;;;;20.20;47.39;101665.63;5104473;28;20482;-77
2022/09/23 09:49:31;;;;;;;0.22;0.22;;;;;;;20.25;47.10;101658.19;5087891;27;20898;-76
2022/09/23 09:52:19;;;;;;;0.10;0.10;;;;;;;20.30;45.97;101661.53;5088337;28;20500;-76
2022/09/23 09:54:48;;;;;;;0.10;0.10;;;;;;;20.26;47.71;101649.19;5088543;28;20020;-77
2022/09/23 09:57:30;;;;;;;1.30;0.85;;;;;;;20.35;47.53;101651.41;5089330;28;20421;-76
2022/09/23 09:59:57;;;;;;;0.63;0.63;;;;;;;20.35;47.74;101643.34;5086944;28;20074;-77
2022/09/23 10:02:32;;;;;;;0.10;0.10;;;;;;;20.42;46.36;101638.53;5092759;28;20487;-79
2022/09/23 10:05:02;;;;;;;0.10;0.10;;;;;;;20.46;47.04;101637.44;5090724;28;20039;-78
2022/09/23 10:07:31;;;;;;;0.00;0.00;;;;;;;20.52;46.03;101633.56;5094420;28;20032;-78
2022/09/23 10:10:13;;;;;;;0.10;0.10;;;;;;;20.57;47.29;101634.22;5089164;28;20017;-78
2022/09/23 10:12:48;;;;;;;0.10;0.10;;;;;;;20.65;46.01;101634.72;5090398;28;20550;-78
2022/09/23 10:15:39;;;;;;;0.30;0.30;;;;;;;20.68;45.97;101639.94;5089468;28;20488;-78
2022/09/23 10:18:19;;;;;;;0.05;0.05;;;;;;;20.76;46.60;101631.53;5089300;28;20103;-77
2022/09/23 10:20:46;;;;;;;0.00;0.00;;;;;;;20.77;46.45;101633.28;5087703;28;20078;-78
2022/09/23 10:23:24;;;;;;;0.30;0.30;;;;;;;20.85;46.45;101632.88;5088262;28;20040;-78
2022/09/23 10:26:00;;;;;;;0.08;0.08;;;;;;;20.91;46.84;101628.97;5092335;28;20031;-78
2022/09/23 10:28:49;;;;;;;0.38;0.38;;;;;;;20.90;46.24;101630.81;5092342;28;20020;-78
2022/09/23 10:31:23;;;;;;;0.10;0.10;;;;;;;20.82;46.14;101624.94;5087654;28;20047;-78
2022/09/23 10:33:56;;;;;;;0.10;0.10;;;;;;;20.77;45.99;101640.47;5091061;28;20101;-78
2022/09/23 10:36:22;;;;;;;;;;;;;;;20.93;46.40;101627.94;5093693;28;20391;-78
2022/09/23 10:46:36;;;;;;;0.10;0.10;;;;;;;20.89;46.94;101626.38;5088210;28;20291;-78
2022/09/23 10:47:45;;;;;;;0.10;0.10;;;;;;;21.04;46.21;101624.72;5035474;28;20905;-74
2022/09/23 10:50:23;;;;;;;0.10;0.10;;;;;;;21.04;47.01;101630.09;5024647;28;20033;-78
2022/09/23 10:53:08;;;;;;;0.10;0.10;;;;;;;21.14;47.03;101630.50;5027422;28;20588;-78
2022/09/23 10:56:04;;;;;;;0.40;0.40;;;;;;;21.22;46.33;101628.28;5028962;28;20029;-78
2022/09/23 11:01:44;;;;;;;0.90;0.90;;;;;;;21.38;46.97;101632.84;5052707;28;20386;-76
2022/09/23 11:07:22;;;;;;;0.00;0.00;;;;;;;21.49;46.55;101633.16;5046351;28;20746;-76
2022/09/23 11:12:55;;;;;;;0.05;0.05;;;;;;;21.62;46.64;101615.38;5074478;27;20360;-76
2022/09/23 11:18:28;;;;;;;0.10;0.10;;;;;;;21.78;45.07;101612.72;5058314;28;20400;-76
2022/09/23 11:21:05;;;;;;;0.10;0.10;;;;;;;21.79;45.00;101613.59;5041795;28;20044;-76
2022/09/23 11:26:46;;;;;;;0.30;0.30;;;;;;;21.87;45.37;101616.75;5056303;27;20408;-78
2022/09/23 11:30:07;;;;;;;;;;;;;;;;;;;;;
2022/09/23 11:39:23;;;;;;;0.40;0.40;;;;;;;21.73;46.00;101600.44;5076994;28;20387;-76
2022/09/23 11:41:54;;;;;;;0.80;0.45;;;;;;;21.72;45.72;101606.78;5073515;28;20040;-75
2022/09/23 11:44:30;;;;;;;0.10;0.10;;;;;;;21.73;45.76;101605.84;5072768;28;20029;-76
2022/09/23 11:49:51;;;;;;;0.20;0.20;;;;;;;21.78;46.17;101596.53;5088004;27;20356;-76
2022/09/23 11:55:14;;;;;;;0.10;0.10;;;;;;;21.92;45.37;101594.88;5046425;28;20382;-76
2022/09/23 11:57:47;;;;;;;0.43;0.43;;;;;;;22.14;45.26;101589.16;5042901;28;20025;-76
2022/09/23 12:00:18;;;;;;;0.20;0.20;;;;;;;22.28;44.77;101591.94;5046109;28;20017;-75
2022/09/23 12:05:43;;;;;;;0.05;0.05;;;;;;;22.78;44.78;101578.28;5088091;27;20360;-77
2022/09/23 12:11:25;;;;;;;0.20;0.20;;;;;;;23.09;43.86;101565.59;5091554;27;20367;-77
2022/09/23 12:14:08;;;;;;;0.10;0.10;;;;;;;23.00;43.55;101571.56;5089870;28;20032;-76
2022/09/23 12:20:09;;;;;;;0.10;0.10;;;;;;;23.12;44.61;101568.13;5050409;28;20392;-76
2022/09/23 12:22:49;;;;;;;0.10;0.10;;;;;;;23.22;44.96;101571.16;5026193;28;20037;-77
2022/09/23 12:28:11;;;;;;;0.13;0.13;;;;;;;23.32;43.61;101566.91;5046485;28;20399;-76
2022/09/23 12:30:39;;;;;;;0.10;0.10;;;;;;;23.31;43.88;101558.91;5044501;28;20103;-76
2022/09/23 12:33:10;;;;;;;0.05;0.05;;;;;;;23.27;44.13;101558.22;5040668;28;20099;-76
2022/09/23 12:35:40;;;;;;;0.10;0.10;;;;;;;23.14;43.47;101555.38;5039199;28;20051;-76
2022/09/23 12:38:23;;;;;;;0.80;0.80;;;;;;;23.17;44.28;101551.66;5043786;28;20388;-76
2022/09/23 12:40:51;;;;;;;0.10;0.10;;;;;;;22.89;43.78;101551.50;5043037;28;20021;-76
2022/09/23 12:43:28;;;;;;;0.10;0.10;;;;;;;23.07;44.67;101548.63;5045068;28;20522;-76
2022/09/23 12:46:16;;;;;;;0.13;0.13;;;;;;;23.05;44.59;101547.84;5045357;28;20037;-76
2022/09/23 12:48:46;;;;;;;0.30;0.30;;;;;;;23.05;44.10;101547.84;5043081;28;20030;-76
2022/09/23 12:51:17;;;;;;;0.20;0.20;;;;;;;23.00;44.55;101556.22;5043480;28;20025;-76
2022/09/23 12:59:58;;;;;;;0.32;0.32;;;;;;;22.86;45.69;101548.09;5132516;27;20390;-79
2022/09/23 13:02:35;;;;;;;0.47;0.47;;;;;;;22.82;45.31;101538.41;5100815;28;20028;-80
2022/09/23 13:08:22;;;;;;;0.10;0.10;;;;;;;22.72;46.47;101540.84;5096657;28;20505;-80
2022/09/23 13:11:04;;;;;;;0.10;0.10;;;;;;;22.67;47.48;101549.22;5100494;28;20032;-80
2022/09/23 13:13:50;;;;;;;0.30;0.30;;;;;;;22.66;47.09;101536.66;5096233;28;20126;-79
2022/09/23 13:16:40;;;;;;;0.10;0.10;;;;;;;22.62;46.95;101538.66;5101475;27;20103;-80
2022/09/23 13:22:07;;;;;;;0.73;0.73;;;;;;;22.66;47.82;101530.41;5071132;27;20552;-77
2022/09/23 13:24:40;;;;;;;0.10;0.10;;;;;;;22.67;47.45;101526.72;5070306;28;20431;-78
2022/09/23 13:30:04;;;;;;;0.10;0.10;;;;;;;22.82;47.53;101525.81;5087390;27;20355;-76
2022/09/23 13:32:36;;;;;;;0.47;0.47;;;;;;;22.82;47.66;101525.81;5053840;28;20036;-76
2022/09/23 13:35:15;;;;;;;0.10;0.10;;;;;;;22.92;47.19;101521.56;5051045;28;20025;-77